• Join FlightAware (Why Join?)
  • Login
  • US Flag 
01:19AM EST


 

Airport Tracker/Info


-or-


 

Live Flight TrackerFlight Track Log ✈ N317FL ✈ 30-Apr-2013 ✈ KMDW - KIAD

Flight Track Log - Related Links

Times and Time Zones

All times are in EDT time to prevent confusion due to time zone crossing. See the N317FL flight status page for this flight to view local times or setup timezone preferences in your user account.

Time Position Orientation Groundspeed Altitude Reporting Facility
EDT Latitude Longitude Course Direction KTS MPH feet Rate Location/Type
11:16PM 41.7770 -87.7620 222° Southwest 147 169 1,500  Level FlightAware
11:17PM 41.7730 -87.7700 236° Southwest 150 173 2,200 2,100 Climbing FlightAware
11:17PM 41.7830 -87.7980 296° West 218 251 2,900 1,200 Climbing FlightAware
11:17PM 41.7940 -87.8010 349° North 237 273 3,000 1,320 Climbing FlightAware
11:18PM 41.8250 -87.7780 29° Northeast 237 273 3,900 1,320 Climbing FlightAware
11:18PM 41.8290 -87.7650 68° East 241 277 4,000 720 Climbing FlightAware
11:18PM 41.8340 -87.7160 82° East 268 308 4,400 2,880 Climbing FlightAware
11:19PM 41.8310 -87.6660 95° East 262 302 6,900 4,260 Climbing FlightAware
11:19PM 41.8250 -87.6170 99° East 277 319 8,700 3,600 Climbing FlightAware
11:20PM 41.8170 -87.5480 99° East 291 335 11,100 3,720 Climbing FlightAware
11:21PM 41.8080 -87.4730 99° East 297 342 13,700 3,720 Climbing FlightAware
11:22PM 41.7990 -87.3930 99° East 298 343 16,400 3,300 Climbing FlightAware
11:22PM 41.7910 -87.3180 98° East 312 359 18,400 1,980 Climbing FlightAware
11:23PM 41.7820 -87.2420 99° East 353 406 19,100 1,020 Climbing FlightAware
11:24PM 41.7700 -87.1290 98° East 394 453 19,900 1,860 Climbing FlightAware
11:24PM 41.7620 -87.0480 98° East 379 436 21,600 3,060 Climbing FlightAware
11:25PM 41.7640 -86.9340 89° East 358 412 24,300 2,640 Climbing FlightAware
11:26PM 41.7640 -86.8450 90° East 371 427 25,600 1,680 Climbing FlightAware
11:26PM 41.7650 -86.7390 89° East 389 448 26,700 1,440 Climbing FlightAware
11:27PM 41.7660 -86.6510 89° East 402 463 27,700 1,560 Climbing FlightAware
11:28PM 41.7670 -86.5410 89° East 411 473 28,800 1,560 Climbing FlightAware
11:28PM 41.7680 -86.4390 89° East 420 483 29,800 1,440 Climbing FlightAware
11:29PM 41.7690 -86.3170 89° East 427 491 30,900 1,440 Climbing FlightAware
11:30PM 41.7630 -86.2020 94° East 430 495 32,000 1,440 Climbing FlightAware
11:31PM 41.7550 -86.0960 96° East 429 494 33,000 1,500 Climbing FlightAware
11:31PM 41.7490 -85.9900 94° East 427 491 34,000 1,440 Climbing FlightAware
11:32PM 41.7410 -85.8690 95° East 424 488 35,100 1,440 Climbing FlightAware
11:33PM 41.7340 -85.7630 95° East 420 483 36,100 1,440 Climbing FlightAware
11:33PM 41.7270 -85.6510 95° East 415 478 37,200 1,440 Climbing FlightAware
11:34PM 41.7200 -85.5500 95° East 409 471 38,200 1,500 Climbing FlightAware
11:35PM 41.7130 -85.4510 95° East 399 459 39,200 1,440 Climbing FlightAware
11:36PM 41.7060 -85.3410 95° East 388 447 40,300 1,380 Climbing FlightAware
11:36PM 41.6990 -85.2430 95° East 382 440 41,200 960 Climbing FlightAware
11:37PM 41.6920 -85.1430 95° East 385 443 41,700 720 Climbing FlightAware
11:38PM 41.6860 -85.0470 95° East 386 444 42,300 780 Climbing FlightAware
11:38PM 41.6790 -84.9500 95° East 387 445 42,800 660 Climbing FlightAware
11:39PM 41.6700 -84.8460 97° East 387 445 43,300 720 Climbing FlightAware
11:40PM 41.6410 -84.7570 114° Southeast 384 442 43,900 720 Climbing FlightAware
11:40PM 41.6090 -84.6740 117° Southeast 383 441 44,400 720 Climbing FlightAware
11:41PM 41.5720 -84.5790 117° Southeast 381 438 45,000 420 Climbing FlightAware
11:42PM 41.5360 -84.4880 118° Southeast 393 452 45,000  Level FlightAware
11:43PM 41.5000 -84.3960 118° Southeast 404 465 45,000  Level FlightAware
11:43PM 41.4640 -84.3060 118° Southeast 415 478 45,000  Level FlightAware
11:44PM 41.4220 -84.2030 119° Southeast 425 489 45,000  Level FlightAware
11:45PM 41.3910 -84.1230 117° Southeast 431 496 45,000  Level FlightAware
11:45PM 41.3410 -84.0000 118° Southeast 440 506 45,000  Level FlightAware
11:46PM 41.3040 -83.9070 118° Southeast 444 511 45,000  Level FlightAware
11:47PM 41.2650 -83.8110 118° Southeast 446 513 45,000  Level FlightAware
11:47PM 41.2260 -83.7150 118° Southeast 445 512 45,000  Level FlightAware
11:48PM 41.1820 -83.6050 118° Southeast 443 510 45,000  Level FlightAware
11:49PM 41.1480 -83.5240 119° Southeast 442 509 45,000  Level FlightAware
11:50PM 41.0990 -83.4040 118° Southeast 441 507 45,000  Level FlightAware
11:50PM 41.0610 -83.3110 118° Southeast 440 506 45,000  Level FlightAware
11:51PM 41.0160 -83.2010 118° Southeast 438 504 45,000  Level FlightAware
11:52PM 40.9770 -83.1080 119° Southeast 437 503 45,000  Level FlightAware
11:52PM 40.9370 -83.0120 119° Southeast 437 503 45,000  Level FlightAware
11:53PM 40.9060 -82.9370 119° Southeast 436 502 45,000  Level FlightAware
11:54PM 40.8560 -82.8170 119° Southeast 436 502 45,000  Level FlightAware
11:54PM 40.8110 -82.7100 119° Southeast 436 502 45,000  Level FlightAware
11:55PM 40.7730 -82.6190 119° Southeast 435 501 45,000  Level FlightAware
11:56PM 40.7340 -82.5260 119° Southeast 436 502 45,000  Level FlightAware
11:57PM 40.6920 -82.4290 120° Southeast 436 502 45,000  Level FlightAware
11:57PM 40.6510 -82.3300 119° Southeast 436 502 45,000  Level FlightAware
11:58PM 40.6090 -82.2330 120° Southeast 435 501 45,000  Level FlightAware
11:59PM 40.5660 -82.1320 119° Southeast 435 501 45,000  Level FlightAware
11:59PM 40.5270 -82.0400 119° Southeast 435 501 45,000  Level FlightAware
12:00AM 40.4810 -81.9340 120° Southeast 436 502 45,000  Level FlightAware
12:01AM 40.4430 -81.8460 120° Southeast 436 502 45,000  Level FlightAware
12:01AM 40.3970 -81.7400 120° Southeast 436 502 45,000  Level FlightAware
12:02AM 40.3570 -81.6480 120° Southeast 435 501 45,000  Level FlightAware
12:03AM 40.3170 -81.5560 120° Southeast 435 501 45,000 -480 Level FlightAware
12:04AM 40.2750 -81.4490 117° Southeast 445 512 44,400 -960 Descending FlightAware
12:04AM 40.2380 -81.3500 116° Southeast 451 519 43,700 -1,020 Descending FlightAware
12:05AM 40.1970 -81.2420 116° Southeast 453 521 43,000 -1,020 Descending FlightAware
12:06AM 40.1600 -81.1460 117° Southeast 448 516 42,300 -1,080 Descending FlightAware
12:06AM 40.1240 -81.0500 116° Southeast 441 507 41,600 -1,020 Descending FlightAware
12:07AM 40.0820 -80.9410 117° Southeast 433 498 40,900 -1,020 Descending FlightAware
12:08AM 40.0650 -80.8440 103° East 425 489 40,200 -1,020 Descending FlightAware
12:08AM 40.0490 -80.7450 102° East 416 479 39,600 -900 Descending FlightAware
12:09AM 40.0320 -80.6440 102° East 407 468 39,000 -480 Descending FlightAware
12:10AM 39.9950 -80.5500 117° Southeast 414 476 39,000  Level FlightAware
12:11AM 39.9510 -80.4500 120° Southeast 420 483 39,000  Level FlightAware
12:11AM 39.9130 -80.3650 120° Southeast 424 488 39,000  Level FlightAware
12:12AM 39.8720 -80.2750 121° Southeast 429 494 39,000  Level FlightAware
12:13AM 39.8320 -80.1860 120° Southeast 432 497 39,000  Level FlightAware
12:13AM 39.7870 -80.0870 121° Southeast 437 503 39,000 -720 Level FlightAware
12:14AM 39.7420 -79.9870 120° Southeast 428 493 38,000 -1,680 Descending FlightAware
12:15AM 39.7050 -79.9060 121° Southeast 420 483 36,700 -1,920 Descending FlightAware
12:16AM 39.6520 -79.7890 120° Southeast 421 484 35,000 -1,980 Descending FlightAware
12:16AM 39.6080 -79.6940 121° Southeast 425 489 33,600 -2,100 Descending FlightAware
12:17AM 39.5620 -79.5920 120° Southeast 443 510 32,100 -1,980 Descending FlightAware
12:18AM 39.5220 -79.5070 121° Southeast 443 510 30,800 -2,100 Descending FlightAware
12:18AM 39.4760 -79.4000 119° Southeast 432 497 29,200 -2,100 Descending FlightAware
12:19AM 39.4560 -79.2990 104° East 448 516 27,900 -1,920 Descending FlightAware
12:20AM 39.4390 -79.2050 103° East 454 522 26,700 -1,980 Descending FlightAware
12:21AM 39.4150 -79.0720 103° East 451 519 25,100 -2,160 Descending FlightAware
12:21AM 39.3960 -78.9700 104° East 416 479 23,700 -1,800 Descending FlightAware
12:22AM 39.3780 -78.8680 103° East 385 443 22,600 -1,560 Descending FlightAware
12:23AM 39.3620 -78.7770 103° East 378 435 21,500 -1,920 Descending FlightAware
12:23AM 39.3450 -78.6820 103° East 355 409 19,900 -2,160 Descending FlightAware
12:24AM 39.3300 -78.5990 103° East 351 404 18,500 -2,100 Descending FlightAware
12:25AM 39.3120 -78.5020 103° East 383 441 17,000 -2,100 Descending FlightAware
12:25AM 39.2960 -78.4140 103° East 371 427 15,600 -2,100 Descending FlightAware
12:26AM 39.2790 -78.3310 105° East 349 402 14,200 -2,160 Descending FlightAware
12:27AM 39.2590 -78.2430 106° East 350 403 12,600 -1,860 Descending FlightAware
12:28AM 39.2420 -78.1610 105° East 357 411 11,600 -1,320 Descending FlightAware
12:28AM 39.2250 -78.0780 105° East 362 417 10,900 -1,080 Descending FlightAware
12:29AM 39.2070 -77.9830 104° East 344 396 10,100 -1,140 Descending FlightAware
12:29AM 39.2010 -77.9550 105° East 323 372 9,800 -1,080 Descending FlightAware
12:30AM 39.1930 -77.9110 103° East 290 334 9,400 -1,020 Descending FlightAware
12:30AM 39.1850 -77.8650 103° East 294 338 8,900 -1,140 Descending FlightAware
12:31AM 39.1760 -77.8100 102° East 276 318 8,300 -1,680 Descending FlightAware
12:31AM 39.1700 -77.7700 101° East 265 305 7,400 -2,220 Descending FlightAware
12:32AM 39.1640 -77.7260 100° East 256 295 6,300 -2,340 Descending FlightAware
12:32AM 39.1580 -77.6860 101° East 255 293 5,300 -1,920 Descending FlightAware
12:32AM 39.1540 -77.6580 100° East 264 304 4,700 -1,680 Descending FlightAware
12:33AM 39.1490 -77.6190 99° East 262 302 3,900 -1,440 Descending FlightAware
12:33AM 39.1430 -77.5750 100° East 237 273 3,400 -1,020 Descending FlightAware
12:34AM 39.1380 -77.5410 101° East 242 278 2,900 -720 Descending FlightAware
12:34AM 39.1320 -77.4950 100° East 230 265 2,700 -240 Descending FlightAware
12:35AM 39.1150 -77.4690 130° Southeast 192 221 2,700 -240 Level FlightAware
12:35AM 39.0940 -77.4580 158° South 182 209 2,500 -780 Descending FlightAware
12:35AM 39.0840 -77.4570 176° South 190 219 2,200 -1,500 Descending FlightAware
12:36AM 39.0490 -77.4580 181° South 161 185 1,400 -1,080 Descending FlightAware
12:36AM 39.0430 -77.4580 180° South 162 186 1,300 -660 Descending FlightAware
12:37AM 38.9990 -77.4590 181° South 130 150 500 -540 Descending FlightAware
12:38AM 38.9850 -77.4590 180° South 130 150 500  Level FlightAware
12:45AM 38.9474 -77.4599 159° South  Level Estimated
12:46AM 38.9474 -77.4599 159° South  Level Estimated
12:47AM 38.9474 -77.4599 159° South  Level Estimated
12:48AM 38.9474 -77.4599 159° South  Level Estimated
12:49AM 38.9474 -77.4599 159° South  Level Estimated
12:50AM 38.9474 -77.4599 159° South  Level Estimated